Big Canoe, Georgia
Current Conditions -  °F | °C
As of 10:15 PM on Monday 26 Jan 2015 (Local Time) from KCNI Reporting Station
Broken Clouds Broken Clouds  
Wind Chill: 27°   Ceiling: 8500
Heat Index: 34°   Visibility: 10mi
Dew Point: 23°   Wind: 8mph
Humidity: 65%   Direction: 300°WNW
Pressure: 29.91"   Gusts: NA
Location:  34.4645°N, 84.4746°W
Report Text: KCNI 270315Z AUTO 30007KT 10SM BKN085 BKN110 01/M05 A2991 RMK AO2
Loading
Personal Weather Stations






























Interactive Weather Map New forecast layout! Learn more

10-Day Weather Forecast

Advertisements
Track Severe Weather on mobile